createdAt,value
2018-11-26T00:00:47.513Z,7.58
2018-11-26T00:03:12.973Z,7.59
2018-11-26T00:05:38.822Z,7.23
2018-11-26T00:11:07.379Z,7.28
2018-11-26T00:13:32.466Z,7.06
2018-11-26T00:15:57.566Z,7.46
2018-11-26T00:18:22.639Z,7.62
2018-11-26T00:20:47.746Z,7.56
2018-11-26T00:23:13.192Z,7.54
2018-11-26T00:25:38.292Z,7.69
2018-11-26T00:28:03.430Z,7.44
2018-11-26T00:30:28.713Z,7.31
2018-11-26T00:32:53.818Z,7.49
2018-11-26T00:35:18.924Z,7.42
2018-11-26T00:37:43.986Z,7.45
2018-11-26T00:40:10.773Z,7.53
2018-11-26T00:45:13.649Z,7.56
2018-11-26T00:50:16.323Z,7.45
2018-11-26T00:52:42.095Z,7.52
2018-11-26T00:55:08.497Z,7.29
2018-11-26T00:57:33.570Z,7.38
2018-11-26T00:59:58.769Z,7.42
2018-11-26T01:02:23.876Z,7.32
2018-11-26T01:04:48.961Z,7.17
2018-11-26T01:07:14.072Z,7.38
2018-11-26T01:09:39.169Z,7.32
2018-11-26T01:12:04.420Z,7.28
2018-11-26T01:14:29.586Z,7.31
2018-11-26T01:16:54.938Z,7.29
2018-11-26T01:19:19.956Z,7.14
2018-11-26T01:21:45.126Z,7.26
2018-11-26T01:24:10.188Z,7.28
2018-11-26T01:26:35.244Z,7.08
2018-11-26T01:29:00.326Z,7.19
2018-11-26T01:31:25.418Z,7.26
2018-11-26T01:33:50.580Z,7.29
2018-11-26T01:36:15.636Z,7.27
2018-11-26T01:38:40.742Z,7.11
2018-11-26T01:41:05.876Z,7.27
2018-11-26T01:43:30.941Z,7.29
2018-11-26T01:45:56.057Z,7.38
2018-11-26T01:48:21.131Z,7.36
2018-11-26T01:50:46.208Z,7.22
2018-11-26T01:53:11.331Z,7.11
2018-11-26T01:55:36.542Z,6.82
2018-11-26T01:58:01.714Z,6.91
2018-11-26T02:00:27.850Z,7.07
2018-11-26T02:02:52.922Z,7.13
2018-11-26T02:05:18.080Z,6.90
2018-11-26T02:07:43.173Z,6.93
2018-11-26T02:10:10.473Z,6.76
2018-11-26T02:12:35.517Z,6.89
2018-11-26T02:15:00.610Z,6.88
2018-11-26T02:17:25.693Z,7.00
2018-11-26T02:19:50.770Z,7.00
2018-11-26T02:22:15.825Z,7.02
2018-11-26T02:24:40.927Z,6.73
2018-11-26T02:27:06.409Z,7.03
2018-11-26T02:29:31.458Z,6.98
2018-11-26T02:31:56.517Z,6.72
2018-11-26T02:34:21.565Z,6.56
2018-11-26T02:36:46.895Z,6.58
2018-11-26T02:39:11.929Z,6.72
2018-11-26T02:41:36.958Z,6.57
2018-11-26T02:44:02.028Z,6.87
2018-11-26T02:46:27.100Z,6.67
2018-11-26T02:48:52.206Z,6.73
2018-11-26T02:51:17.200Z,6.52
2018-11-26T02:53:42.521Z,6.28
2018-11-26T02:56:07.553Z,6.36
2018-11-26T02:58:32.597Z,6.23
2018-11-26T03:00:57.707Z,6.29
2018-11-26T03:03:22.760Z,6.48
2018-11-26T03:05:48.225Z,6.37
2018-11-26T03:08:13.335Z,6.24
2018-11-26T03:10:38.380Z,6.34
2018-11-26T03:13:15.313Z,6.29
2018-11-26T03:15:40.387Z,5.93
2018-11-26T03:18:05.477Z,5.92
2018-11-26T03:20:30.521Z,5.93
2018-11-26T03:22:55.620Z,6.07
2018-11-26T03:25:39.691Z,6.09
2018-11-26T03:28:04.796Z,5.89
2018-11-26T03:30:30.188Z,6.33
2018-11-26T03:32:55.302Z,6.03
2018-11-26T03:35:20.395Z,6.15
2018-11-26T03:37:45.536Z,5.83
2018-11-26T03:40:11.925Z,6.10
2018-11-26T03:42:36.961Z,5.73
2018-11-26T03:45:02.046Z,5.93
2018-11-26T03:47:27.099Z,5.90
2018-11-26T03:49:52.177Z,5.93
2018-11-26T03:52:17.215Z,5.51
2018-11-26T03:54:42.271Z,5.65
2018-11-26T03:57:07.468Z,5.89
2018-11-26T03:59:32.553Z,5.67
2018-11-26T04:01:57.748Z,5.49
2018-11-26T04:04:22.801Z,5.67
2018-11-26T04:06:47.868Z,5.29
2018-11-26T04:09:12.967Z,5.01
2018-11-26T04:11:38.407Z,5.19
2018-11-26T04:14:03.593Z,5.15
2018-11-26T04:16:28.681Z,5.41
2018-11-26T04:18:53.735Z,5.22
2018-11-26T04:21:18.855Z,5.47
2018-11-26T04:23:43.932Z,5.48
2018-11-26T04:26:09.031Z,5.42
2018-11-26T04:28:34.074Z,5.36
2018-11-26T04:30:59.113Z,5.35
2018-11-26T04:33:24.281Z,5.39
2018-11-26T04:35:49.392Z,5.35
2018-11-26T04:38:14.449Z,5.43
2018-11-26T04:40:39.505Z,5.35
2018-11-26T04:43:04.583Z,5.24
2018-11-26T04:45:29.691Z,5.28
2018-11-26T04:47:54.746Z,5.37
2018-11-26T04:52:56.921Z,5.15
2018-11-26T04:55:22.091Z,5.25
2018-11-26T04:57:47.128Z,5.06
2018-11-26T05:00:13.619Z,5.09
2018-11-26T05:02:38.727Z,5.03
2018-11-26T05:05:03.822Z,4.91
2018-11-26T05:07:28.924Z,4.94
2018-11-26T05:09:53.965Z,5.00
2018-11-26T05:12:19.053Z,4.72
2018-11-26T05:14:44.091Z,4.82
2018-11-26T05:17:09.155Z,4.46
2018-11-26T05:19:34.288Z,4.56
2018-11-26T05:21:59.390Z,4.78
2018-11-26T05:24:24.505Z,4.70
2018-11-26T05:26:49.656Z,4.69
2018-11-26T05:29:14.689Z,4.32
2018-11-26T05:31:39.773Z,4.62
2018-11-26T05:34:04.859Z,4.42
2018-11-26T05:36:30.113Z,4.56
2018-11-26T05:38:55.209Z,4.56
2018-11-26T05:41:20.321Z,4.41
2018-11-26T05:43:45.369Z,4.52
2018-11-26T05:46:10.467Z,4.32
2018-11-26T05:48:35.530Z,4.33
2018-11-26T05:51:00.580Z,4.45
2018-11-26T05:53:25.680Z,4.21
2018-11-26T05:55:50.763Z,4.31
2018-11-26T05:58:15.837Z,4.39
2018-11-26T06:03:19.918Z,4.42
2018-11-26T06:05:45.028Z,4.29
2018-11-26T06:08:10.136Z,4.29
2018-11-26T06:10:35.258Z,4.26
2018-11-26T06:13:00.348Z,4.05
2018-11-26T06:15:25.405Z,4.31
2018-11-26T06:17:57.753Z,4.31
2018-11-26T06:20:22.828Z,4.22
2018-11-26T06:22:48.447Z,4.06
2018-11-26T06:25:36.367Z,4.27
2018-11-26T06:28:01.441Z,4.21
2018-11-26T06:30:26.612Z,4.33
2018-11-26T06:32:51.714Z,4.06
2018-11-26T06:35:36.441Z,4.04
2018-11-26T06:38:01.535Z,4.12
2018-11-26T06:40:26.656Z,3.99
2018-11-26T06:42:51.774Z,3.81
2018-11-26T06:45:21.224Z,4.04
2018-11-26T06:47:46.310Z,4.16
2018-11-26T06:50:15.323Z,4.01
2018-11-26T06:52:40.410Z,4.14
2018-11-26T06:55:06.022Z,4.09
2018-11-26T06:57:31.112Z,3.61
2018-11-26T06:59:56.416Z,3.83
2018-11-26T07:02:21.512Z,4.11
2018-11-26T07:04:46.550Z,4.15
2018-11-26T07:07:11.678Z,4.09
2018-11-26T07:09:36.718Z,3.97
2018-11-26T07:12:01.838Z,3.94
2018-11-26T07:14:26.842Z,3.87
2018-11-26T07:16:51.872Z,4.17
2018-11-26T07:19:16.930Z,4.21
2018-11-26T07:21:41.984Z,4.24
2018-11-26T07:24:07.173Z,4.43
2018-11-26T07:26:32.239Z,4.41
2018-11-26T07:28:57.301Z,4.21
2018-11-26T07:31:22.363Z,4.51
2018-11-26T07:33:47.388Z,4.58
2018-11-26T07:36:12.477Z,4.56
2018-11-26T07:38:37.536Z,4.58
2018-11-26T07:41:02.593Z,4.51
2018-11-26T07:43:27.637Z,4.13
2018-11-26T07:45:52.706Z,4.51
2018-11-26T07:48:17.727Z,4.62
2018-11-26T07:50:42.807Z,4.70
2018-11-26T07:53:27.732Z,4.35
2018-11-26T07:55:52.790Z,4.68
2018-11-26T07:58:17.887Z,4.73
2018-11-26T08:00:43.110Z,4.69
2018-11-26T08:03:19.838Z,4.55
2018-11-26T08:05:44.908Z,4.93
2018-11-26T08:08:09.984Z,4.77
2018-11-26T08:10:35.201Z,4.88
2018-11-26T08:13:00.312Z,4.54
2018-11-26T08:15:26.381Z,4.80
2018-11-26T08:20:27.756Z,5.18
2018-11-26T08:22:52.828Z,5.18
2018-11-26T08:25:19.425Z,5.33
2018-11-26T08:27:45.179Z,5.14
2018-11-26T08:30:30.612Z,5.00
2018-11-26T08:33:04.635Z,4.77
2018-11-26T08:35:30.066Z,4.93
2018-11-26T08:38:13.855Z,5.03
2018-11-26T08:40:57.617Z,4.76
2018-11-26T08:43:41.506Z,5.11
2018-11-26T08:49:01.698Z,4.90
2018-11-26T08:51:26.762Z,4.91
2018-11-26T08:53:51.816Z,5.14
2018-11-26T08:56:16.896Z,5.17
2018-11-26T08:58:41.994Z,5.35
2018-11-26T09:01:17.282Z,5.19
2018-11-26T09:06:18.644Z,5.48
2018-11-26T09:08:43.727Z,5.14
2018-11-26T09:11:10.082Z,5.49
2018-11-26T09:13:35.167Z,5.56
2018-11-26T09:16:00.188Z,4.93
2018-11-26T09:18:25.248Z,5.50
2018-11-26T09:20:50.311Z,5.59
2018-11-26T09:23:15.367Z,5.55
2018-11-26T09:25:40.402Z,5.13
2018-11-26T09:28:05.537Z,5.40
2018-11-26T09:30:30.614Z,5.45
2018-11-26T09:32:55.632Z,5.23
2018-11-26T09:35:20.700Z,5.38
2018-11-26T09:37:45.769Z,5.39
2018-11-26T09:40:12.753Z,5.34
2018-11-26T09:42:37.785Z,5.36
2018-11-26T09:45:02.871Z,5.57
2018-11-26T09:47:27.914Z,5.64
2018-11-26T09:49:52.977Z,5.74
2018-11-26T09:52:18.081Z,5.77
2018-11-26T09:54:43.163Z,5.62
2018-11-26T09:57:08.227Z,5.56
2018-11-26T09:59:33.469Z,5.71
2018-11-26T10:01:58.528Z,5.84
2018-11-26T10:04:23.597Z,5.35
2018-11-26T10:09:27.778Z,5.41
2018-11-26T10:11:52.908Z,5.41
2018-11-26T10:14:17.996Z,5.54
2018-11-26T10:16:43.133Z,5.85
2018-11-26T10:19:08.192Z,5.64
2018-11-26T10:21:33.426Z,5.93
2018-11-26T10:26:34.993Z,5.49
2018-11-26T10:29:00.047Z,5.71
2018-11-26T10:31:25.130Z,5.79
2018-11-26T10:33:50.232Z,5.86
2018-11-26T10:36:15.312Z,6.09
2018-11-26T10:38:40.390Z,6.07
2018-11-26T10:41:05.474Z,5.99
2018-11-26T10:43:30.785Z,6.03
2018-11-26T10:45:55.828Z,6.07
2018-11-26T10:48:20.923Z,5.84
2018-11-26T10:50:46.060Z,6.30
2018-11-26T10:53:11.122Z,6.03
2018-11-26T10:55:37.097Z,5.88
2018-11-26T10:58:02.257Z,6.05
2018-11-26T11:00:46.109Z,6.28
2018-11-26T11:03:11.394Z,6.03
2018-11-26T11:05:37.261Z,5.99
2018-11-26T11:08:02.378Z,6.15
2018-11-26T11:10:28.639Z,5.71
2018-11-26T11:12:53.853Z,5.68
2018-11-26T11:15:18.914Z,5.70
2018-11-26T11:17:43.968Z,5.80
2018-11-26T11:20:29.113Z,6.11
2018-11-26T11:22:54.196Z,6.19
2018-11-26T11:25:40.255Z,6.36
2018-11-26T11:28:05.743Z,5.73
2018-11-26T11:30:31.231Z,6.30
2018-11-26T11:32:56.309Z,6.38
2018-11-26T11:35:21.550Z,6.52
2018-11-26T11:37:47.622Z,6.60
2018-11-26T11:40:32.193Z,6.45
2018-11-26T11:42:57.784Z,6.48
2018-11-26T11:45:23.460Z,6.21
2018-11-26T11:47:48.536Z,6.45
2018-11-26T11:50:14.878Z,6.61
2018-11-26T11:52:39.998Z,6.51
2018-11-26T11:55:05.252Z,6.28
2018-11-26T11:57:30.369Z,6.69
2018-11-26T11:59:55.414Z,6.86
2018-11-26T12:02:20.633Z,6.75
2018-11-26T12:04:45.712Z,6.58
2018-11-26T12:07:10.879Z,6.82
2018-11-26T12:09:35.997Z,6.58
2018-11-26T12:14:38.007Z,6.88
2018-11-26T12:17:03.096Z,6.69
2018-11-26T12:19:28.203Z,6.76
2018-11-26T12:21:53.284Z,6.50
2018-11-26T12:24:18.360Z,6.62
2018-11-26T12:26:43.550Z,6.81
2018-11-26T12:29:08.618Z,6.36
2018-11-26T12:31:33.694Z,6.53
2018-11-26T12:33:58.794Z,6.82
2018-11-26T12:36:23.901Z,6.58
2018-11-26T12:38:48.954Z,6.83
2018-11-26T12:41:14.046Z,6.97
2018-11-26T12:43:39.151Z,7.08
2018-11-26T12:46:04.338Z,7.00
2018-11-26T12:48:29.468Z,7.11
2018-11-26T12:50:54.511Z,7.12
2018-11-26T12:53:19.615Z,7.11
2018-11-26T12:55:44.708Z,7.13
2018-11-26T12:58:09.809Z,7.15
2018-11-26T13:00:34.971Z,7.14
2018-11-26T13:03:01.378Z,7.17
2018-11-26T13:05:26.503Z,7.15
2018-11-26T13:07:51.646Z,7.06
2018-11-26T13:10:21.245Z,7.12
2018-11-26T13:15:29.905Z,7.24
2018-11-26T13:17:55.010Z,7.17
2018-11-26T13:20:39.133Z,7.18
2018-11-26T13:23:04.216Z,7.24
2018-11-26T13:25:42.179Z,7.14
2018-11-26T13:28:06.598Z,7.26
2018-11-26T13:30:35.883Z,6.99
2018-11-26T13:33:20.273Z,7.17
2018-11-26T13:35:46.336Z,7.26
2018-11-26T13:38:11.511Z,7.11
2018-11-26T13:40:36.707Z,7.09
2018-11-26T13:43:01.827Z,7.20
2018-11-26T13:45:46.482Z,7.17
2018-11-26T13:48:12.632Z,7.15
2018-11-26T13:50:39.440Z,7.27
2018-11-26T13:53:04.547Z,7.32
2018-11-26T13:55:29.618Z,7.17
2018-11-26T13:57:54.839Z,7.22
2018-11-26T14:00:19.878Z,7.35
2018-11-26T14:02:44.985Z,7.30
2018-11-26T14:05:29.149Z,7.34
2018-11-26T14:07:54.239Z,7.29
2018-11-26T14:10:38.373Z,7.22
2018-11-26T14:13:05.024Z,7.25
2018-11-26T14:15:30.203Z,7.44
2018-11-26T14:17:55.313Z,7.43
2018-11-26T14:20:20.396Z,7.45
2018-11-26T14:22:45.479Z,7.38
2018-11-26T14:25:19.881Z,7.30
2018-11-26T14:27:45.481Z,7.38
2018-11-26T14:30:30.172Z,7.40
2018-11-26T14:32:55.660Z,7.36
2018-11-26T14:35:20.947Z,7.26
2018-11-26T14:37:46.592Z,7.34
2018-11-26T14:40:49.708Z,7.35
2018-11-26T14:43:14.804Z,7.17
2018-11-26T14:45:39.902Z,7.11
2018-11-26T14:48:05.626Z,7.35
2018-11-26T14:50:30.759Z,7.39
2018-11-26T14:52:55.875Z,7.32
2018-11-26T14:55:24.885Z,7.43
2018-11-26T14:57:49.978Z,7.39
2018-11-26T15:00:34.609Z,7.38
2018-11-26T15:02:59.737Z,7.35
2018-11-26T15:05:24.766Z,7.34
2018-11-26T15:07:49.845Z,7.33
2018-11-26T15:10:33.986Z,7.34
2018-11-26T15:12:59.060Z,7.30
2018-11-26T15:15:27.897Z,7.36
2018-11-26T15:17:52.989Z,7.36
2018-11-26T15:20:37.113Z,7.43
2018-11-26T15:23:02.373Z,7.38
2018-11-26T15:25:28.611Z,7.44
2018-11-26T15:27:54.828Z,7.38
2018-11-26T15:30:21.046Z,7.30
2018-11-26T15:33:05.151Z,7.35
2018-11-26T15:35:30.238Z,7.34
2018-11-26T15:37:55.310Z,7.33
2018-11-26T15:40:21.450Z,7.17
2018-11-26T15:42:46.536Z,7.39
2018-11-26T15:45:30.683Z,7.36
2018-11-26T15:48:15.105Z,7.36
2018-11-26T15:50:40.227Z,7.22
2018-11-26T15:53:05.301Z,7.26
2018-11-26T15:55:30.359Z,7.39
2018-11-26T15:57:55.475Z,7.34
2018-11-26T16:00:21.639Z,7.33
2018-11-26T16:02:46.839Z,7.31
2018-11-26T16:05:13.222Z,7.30
2018-11-26T16:07:38.326Z,7.26
2018-11-26T16:10:16.391Z,7.37
2018-11-26T16:12:41.824Z,7.16
2018-11-26T16:15:09.552Z,7.05
2018-11-26T16:17:34.639Z,7.11
2018-11-26T16:19:59.734Z,6.93
2018-11-26T16:22:24.823Z,6.96
2018-11-26T16:24:49.875Z,6.89
2018-11-26T16:27:14.985Z,6.87
2018-11-26T16:29:40.039Z,7.02
2018-11-26T16:32:05.151Z,7.15
2018-11-26T16:34:41.979Z,6.96
2018-11-26T16:37:07.507Z,7.07
2018-11-26T16:39:32.586Z,6.99
2018-11-26T16:41:57.711Z,6.97
2018-11-26T16:44:22.900Z,6.92
2018-11-26T16:46:47.992Z,7.10
2018-11-26T16:49:13.087Z,7.13
2018-11-26T16:51:38.206Z,6.87
2018-11-26T16:54:03.295Z,7.03
2018-11-26T16:56:28.345Z,7.05
2018-11-26T16:58:53.448Z,7.06
2018-11-26T17:01:18.567Z,7.04
2018-11-26T17:03:43.658Z,6.97
2018-11-26T17:08:46.267Z,7.00
2018-11-26T17:11:11.710Z,6.88
2018-11-26T17:13:36.822Z,6.98
2018-11-26T17:16:01.883Z,6.99
2018-11-26T17:18:27.010Z,6.99
2018-11-26T17:20:52.092Z,7.06
2018-11-26T17:23:17.225Z,7.06
2018-11-26T17:25:42.326Z,7.04
2018-11-26T17:30:45.307Z,7.00
2018-11-26T17:33:11.955Z,6.98
2018-11-26T17:35:37.042Z,7.12
2018-11-26T17:38:02.145Z,7.08
2018-11-26T17:40:27.632Z,6.82
2018-11-26T17:42:53.038Z,7.05
2018-11-26T17:45:18.733Z,6.98
2018-11-26T17:48:03.471Z,6.92
2018-11-26T17:50:39.073Z,7.01
2018-11-26T17:53:04.185Z,7.06
2018-11-26T17:55:29.291Z,7.03
2018-11-26T17:57:54.429Z,6.80
2018-11-26T18:00:48.169Z,6.80
2018-11-26T18:03:13.301Z,6.78
2018-11-26T18:05:38.438Z,6.73
2018-11-26T18:08:05.479Z,6.44
2018-11-26T18:10:30.598Z,6.50
2018-11-26T18:12:55.717Z,6.63
2018-11-26T18:15:20.896Z,6.50
2018-11-26T18:17:46.810Z,6.73
2018-11-26T18:20:22.069Z,6.39
2018-11-26T18:22:48.367Z,6.35
2018-11-26T18:25:13.573Z,6.32
2018-11-26T18:27:39.105Z,6.42
2018-11-26T18:30:05.120Z,6.67
2018-11-26T18:32:30.262Z,6.49
2018-11-26T18:34:55.354Z,6.29
2018-11-26T18:37:20.518Z,6.38
2018-11-26T18:39:45.620Z,6.30
2018-11-26T18:42:10.748Z,6.34
2018-11-26T18:44:54.815Z,6.18
2018-11-26T18:47:19.942Z,6.18
2018-11-26T18:49:45.071Z,6.09
2018-11-26T18:52:10.186Z,6.19
2018-11-26T18:54:54.275Z,6.08
2018-11-26T18:57:19.438Z,6.27
2018-11-26T18:59:44.574Z,6.12
2018-11-26T19:02:09.697Z,6.01
2018-11-26T19:04:34.848Z,5.70
2018-11-26T19:06:59.993Z,5.98
2018-11-26T19:09:25.086Z,6.16
2018-11-26T19:11:50.204Z,6.01
2018-11-26T19:14:17.665Z,6.11
2018-11-26T19:16:45.013Z,5.92
2018-11-26T19:19:10.144Z,6.06
2018-11-26T19:21:35.285Z,5.80
2018-11-26T19:24:00.405Z,6.02
2018-11-26T19:26:25.855Z,6.02
2018-11-26T19:28:50.637Z,5.88
2018-11-26T19:31:15.755Z,5.94
2018-11-26T19:33:40.878Z,5.95
2018-11-26T19:36:06.405Z,5.90
2018-11-26T19:38:31.493Z,5.80
2018-11-26T19:40:56.618Z,5.84
2018-11-26T19:43:21.806Z,5.86
2018-11-26T19:45:46.942Z,5.92
2018-11-26T19:48:12.103Z,5.80
2018-11-26T19:50:37.332Z,5.75
2018-11-26T19:53:02.449Z,5.56
2018-11-26T19:55:28.035Z,5.64
2018-11-26T19:57:53.656Z,5.65
2018-11-26T20:00:37.905Z,5.66
2018-11-26T20:03:23.879Z,5.67
2018-11-26T20:06:26.974Z,5.50
2018-11-26T20:09:11.126Z,5.61
2018-11-26T20:14:21.331Z,5.42
2018-11-26T20:16:59.791Z,5.43
2018-11-26T20:19:24.890Z,5.40
2018-11-26T20:21:50.050Z,5.36
2018-11-26T20:24:15.157Z,5.41
2018-11-26T20:26:40.283Z,5.43
2018-11-26T20:29:05.455Z,5.40
2018-11-26T20:31:30.555Z,5.44
2018-11-26T20:33:56.251Z,5.39
2018-11-26T20:36:21.460Z,5.37
2018-11-26T20:38:46.547Z,5.28
2018-11-26T20:41:12.627Z,5.24
2018-11-26T20:43:56.709Z,5.14
2018-11-26T20:46:21.859Z,5.07
2018-11-26T20:48:46.983Z,5.23
2018-11-26T20:51:12.110Z,5.15
2018-11-26T20:53:37.229Z,5.07
2018-11-26T20:56:03.286Z,5.15
2018-11-26T20:58:28.379Z,5.03
2018-11-26T21:00:53.514Z,5.17
2018-11-26T21:03:19.387Z,5.16
2018-11-26T21:05:44.561Z,5.14
2018-11-26T21:08:09.691Z,4.91
2018-11-26T21:10:34.857Z,4.97
2018-11-26T21:12:59.952Z,5.07
2018-11-26T21:15:25.074Z,5.13
2018-11-26T21:17:51.366Z,5.12
2018-11-26T21:20:36.275Z,5.11
2018-11-26T21:23:01.387Z,4.99
2018-11-26T21:25:26.509Z,5.06
2018-11-26T21:27:51.601Z,5.13
2018-11-26T21:30:35.769Z,5.06
2018-11-26T21:33:00.968Z,4.99
2018-11-26T21:35:26.116Z,5.11
2018-11-26T21:37:52.287Z,5.06
2018-11-26T21:40:20.409Z,5.08
2018-11-26T21:42:43.879Z,5.00
2018-11-26T21:45:19.318Z,5.06
2018-11-26T21:47:44.392Z,4.97
2018-11-26T21:50:11.334Z,5.04
2018-11-26T21:52:36.448Z,5.09
2018-11-26T21:55:01.520Z,4.95
2018-11-26T21:57:26.583Z,4.85
2018-11-26T21:59:51.701Z,4.97
2018-11-26T22:02:16.918Z,4.88
2018-11-26T22:04:42.027Z,4.88
2018-11-26T22:07:07.436Z,4.85
2018-11-26T22:09:32.493Z,4.79
2018-11-26T22:12:10.368Z,4.80
2018-11-26T22:14:35.441Z,4.82
2018-11-26T22:17:00.524Z,4.63
2018-11-26T22:19:25.570Z,4.63
2018-11-26T22:21:50.650Z,4.73
2018-11-26T22:24:15.732Z,4.57
2018-11-26T22:26:40.798Z,4.61
2018-11-26T22:29:06.112Z,4.50
2018-11-26T22:31:31.180Z,4.47
2018-11-26T22:33:56.268Z,4.44
2018-11-26T22:36:21.375Z,4.46
2018-11-26T22:38:46.490Z,4.42
2018-11-26T22:41:11.597Z,4.51
2018-11-26T22:43:36.690Z,4.40
2018-11-26T22:46:02.204Z,4.34
2018-11-26T22:48:27.288Z,4.38
2018-11-26T22:50:52.355Z,4.30
2018-11-26T22:53:17.458Z,4.43
2018-11-26T22:55:42.613Z,4.21
2018-11-26T22:58:09.291Z,4.26
2018-11-26T23:00:54.407Z,4.34
2018-11-26T23:03:20.686Z,4.29
2018-11-26T23:05:45.816Z,4.35
2018-11-26T23:08:11.049Z,4.28
2018-11-26T23:10:36.167Z,4.29
2018-11-26T23:13:01.278Z,4.23
2018-11-26T23:15:26.359Z,4.23
2018-11-26T23:17:51.473Z,4.17
2018-11-26T23:20:35.594Z,4.14
2018-11-26T23:23:00.646Z,4.06
2018-11-26T23:25:25.731Z,4.04
2018-11-26T23:27:50.828Z,3.97
2018-11-26T23:30:34.956Z,3.85
2018-11-26T23:33:03.902Z,3.84
2018-11-26T23:35:29.060Z,3.82
2018-11-26T23:37:54.104Z,3.78
2018-11-26T23:40:19.233Z,3.70
2018-11-26T23:42:44.310Z,3.75
2018-11-26T23:45:13.645Z,3.68
2018-11-26T23:47:38.727Z,3.74
2018-11-26T23:50:03.829Z,3.72
2018-11-26T23:52:28.963Z,3.75
2018-11-26T23:54:54.046Z,3.73
2018-11-26T23:57:19.141Z,3.60
2018-11-26T23:59:44.220Z,3.71
